Time;durP1;ratioP1;P1;durP2;ratioP2;P2;SDS_P1;SDS_P2;PMS_P1;PMS_P2;Temp;Humidity;BMP_temperature;BMP_pressure;BME280_temperature;BME280_humidity;BME280_pressure;Samples;Min_cycle;Max_cycle;Signal;HPM_P1;HPM_P2
2023/08/19 00:02:16;;;;;;;;;;;;;;;;;;;;;
2023/08/19 00:05:18;;;;;;;897.33;815.55;;;20.10;84.20;;;;;;4943311;28;20055;-93
2023/08/19 00:08:38;;;;;;;864.63;787.00;;;20.10;84.30;;;;;;4989779;28;20054;-93
2023/08/19 00:11:01;;;;;;;;;;;;;;;;;;;;;
2023/08/19 00:14:29;;;;;;;877.85;798.05;;;20.00;84.20;;;;;;4999639;28;20100;-92
2023/08/19 00:17:16;;;;;;;868.65;789.35;;;20.10;84.30;;;;;;4975232;28;20069;-93
2023/08/19 00:20:16;;;;;;;865.95;787.70;;;20.00;84.20;;;;;;5006883;28;20133;-93
2023/08/19 00:22:47;;;;;;;840.42;767.85;;;20.00;84.30;;;;;;4987185;28;20122;-93
2023/08/19 00:29:25;;;;;;;;;;;;;;;;;;;;;
2023/08/19 00:32:44;;;;;;;;;;;;;;;;;;;;;
2023/08/19 00:35:50;;;;;;;871.03;791.38;;;20.00;84.50;;;;;;4974167;28;20129;-93
2023/08/19 00:38:37;;;;;;;864.65;789.00;;;20.00;84.50;;;;;;4956132;28;20732;-92
2023/08/19 00:41:03;;;;;;;861.05;783.33;;;20.00;84.40;;;;;;4952959;28;20039;-92
2023/08/19 00:43:40;;;;;;;893.60;811.97;;;20.00;84.40;;;;;;4963733;28;20069;-91
2023/08/19 00:46:27;;;;;;;899.15;814.97;;;20.00;84.30;;;;;;4967888;28;20050;-92
2023/08/19 00:49:00;;;;;;;842.50;768.47;;;20.00;84.20;;;;;;4998979;28;20379;-92
2023/08/19 00:51:37;;;;;;;856.45;780.15;;;19.90;84.20;;;;;;5013286;28;20053;-92
2023/08/19 00:54:06;;;;;;;871.17;791.30;;;19.80;84.10;;;;;;4999563;28;20045;-92
2023/08/19 00:57:07;;;;;;;893.58;809.15;;;19.70;84.10;;;;;;5006526;28;20041;-93
2023/08/19 00:59:36;;;;;;;871.60;790.13;;;19.70;84.00;;;;;;5009980;28;20658;-92
2023/08/19 01:02:32;;;;;;;850.97;775.22;;;19.70;84.00;;;;;;5009323;28;20053;-93
2023/08/19 01:05:21;;;;;;;895.53;811.92;;;19.60;83.90;;;;;;4993619;28;20077;-93
2023/08/19 01:15:25;;;;;;;891.53;805.53;;;19.40;83.70;;;;;;4964362;28;20045;-93
2023/08/19 01:17:59;;;;;;;848.53;772.13;;;19.40;83.70;;;;;;4994833;28;20100;-92
2023/08/19 01:23:51;;;;;;;877.60;794.30;;;19.30;83.70;;;;;;4959991;28;20085;-91
2023/08/19 01:26:23;;;;;;;909.90;823.17;;;19.30;83.70;;;;;;4999878;28;20085;-92
2023/08/19 01:29:15;;;;;;;884.03;801.25;;;19.30;83.90;;;;;;4991171;28;20061;-92
2023/08/19 01:32:07;;;;;;;885.53;803.42;;;19.30;84.20;;;;;;5025861;28;20513;-92
2023/08/19 01:34:54;;;;;;;892.42;810.58;;;19.30;84.30;;;;;;5014528;28;20056;-92
2023/08/19 01:38:14;;;;;;;920.95;834.45;;;19.40;84.20;;;;;;5005910;28;20124;-91
2023/08/19 01:41:04;;;;;;;898.80;811.95;;;19.40;84.20;;;;;;5022020;28;20041;-92
2023/08/19 01:47:23;;;;;;;;;;;;;;;;;;;;;
2023/08/19 01:50:22;;;;;;;;;;;;;;;;;;;;;
2023/08/19 01:55:51;;;;;;;861.47;784.50;;;19.20;84.30;;;;;;4997944;28;20045;-91
2023/08/19 01:58:41;;;;;;;878.75;798.60;;;19.20;84.30;;;;;;5002893;28;20140;-92
2023/08/19 02:01:37;;;;;;;882.90;800.17;;;19.20;84.30;;;;;;4998617;28;20044;-93
2023/08/19 02:04:38;;;;;;;868.38;787.72;;;19.20;84.20;;;;;;4976284;28;20052;-92
2023/08/19 02:10:29;;;;;;;862.03;782.88;;;19.10;84.20;;;;;;4940645;29;20055;-92
2023/08/19 02:13:17;;;;;;;840.47;765.67;;;19.20;84.30;;;;;;4951658;28;20050;-93
2023/08/19 02:15:47;;;;;;;889.55;806.92;;;19.20;84.40;;;;;;4989869;28;20069;-93
2023/08/19 02:18:24;;;;;;;;;;;;;;;;;;;;;
2023/08/19 02:21:35;;;;;;;;;;;;;;;;;;;;;
2023/08/19 02:24:10;;;;;;;867.53;787.63;;;19.20;84.50;;;;;;5004993;28;20049;-92
2023/08/19 02:26:55;;;;;;;;;;;;;;;;;;;;;
2023/08/19 02:29:30;;;;;;;868.85;788.70;;;19.20;84.50;;;;;;5016427;28;20113;-92
2023/08/19 02:32:00;;;;;;;856.65;778.53;;;19.10;84.50;;;;;;4986507;28;20108;-92
2023/08/19 02:34:28;;;;;;;846.22;772.33;;;19.10;84.50;;;;;;4972845;28;20133;-93
2023/08/19 02:36:56;;;;;;;821.90;748.13;;;19.10;84.60;;;;;;4980725;28;20263;-93
2023/08/19 02:39:27;;;;;;;848.58;772.72;;;19.10;84.80;;;;;;5005916;28;20045;-93
2023/08/19 02:41:55;;;;;;;831.30;758.08;;;19.20;84.80;;;;;;4987110;28;20053;-93
2023/08/19 02:44:28;;;;;;;839.58;764.40;;;19.20;84.80;;;;;;5026236;28;20082;-93
2023/08/19 02:46:54;;;;;;;835.50;761.33;;;19.20;85.00;;;;;;5002190;28;20520;-92
2023/08/19 02:49:31;;;;;;;841.67;766.47;;;19.20;85.10;;;;;;5007378;28;20540;-92
2023/08/19 02:52:53;;;;;;;845.63;769.63;;;19.30;85.10;;;;;;5007641;28;20108;-92
2023/08/19 02:55:22;;;;;;;853.70;776.20;;;19.30;85.10;;;;;;4912952;29;20048;-92
2023/08/19 02:58:40;;;;;;;881.08;796.28;;;19.30;85.20;;;;;;4892056;29;20059;-93
2023/08/19 03:01:16;;;;;;;845.45;766.97;;;19.30;85.20;;;;;;4853639;29;20061;-93
2023/08/19 03:04:26;;;;;;;844.67;767.50;;;19.40;85.20;;;;;;4864697;29;20052;-93
2023/08/19 03:10:50;;;;;;;863.25;783.47;;;19.40;85.10;;;;;;4857109;29;20048;-93
2023/08/19 03:13:37;;;;;;;853.97;775.78;;;19.40;85.10;;;;;;4890937;28;20471;-93
2023/08/19 03:16:44;;;;;;;861.00;782.58;;;19.40;85.00;;;;;;4991325;28;20111;-92
2023/08/19 03:19:30;;;;;;;;;;;;;;;;;;;;;
2023/08/19 03:22:02;;;;;;;866.53;788.45;;;19.20;85.00;;;;;;5037233;28;20065;-92
2023/08/19 03:24:30;;;;;;;854.97;778.15;;;19.20;85.00;;;;;;5039961;28;20076;-91
2023/08/19 03:27:02;;;;;;;;;;;19.20;85.20;;;;;;5003727;28;20142;-92
2023/08/19 03:29:57;;;;;;;;;;;;;;;;;;;;;
2023/08/19 03:32:51;;;;;;;820.42;748.28;;;19.30;85.70;;;;;;4996411;28;20061;-92
2023/08/19 03:35:30;;;;;;;;;;;;;;;;;;;;;
2023/08/19 03:38:20;;;;;;;840.38;763.95;;;19.50;85.60;;;;;;5014721;28;20445;-92
2023/08/19 03:41:18;;;;;;;;;;;;;;;;;;;;;
2023/08/19 03:43:47;;;;;;;845.50;770.17;;;19.50;85.30;;;;;;5015386;28;20548;-91
2023/08/19 03:46:25;;;;;;;841.08;766.58;;;19.50;85.30;;;;;;5004055;28;20050;-92
2023/08/19 03:48:53;;;;;;;846.03;771.05;;;19.50;85.40;;;;;;4996266;28;20096;-92
2023/08/19 03:51:20;;;;;;;824.72;753.83;;;19.50;85.40;;;;;;5022938;28;20037;-92
2023/08/19 03:53:48;;;;;;;853.50;777.35;;;19.50;85.40;;;;;;4967562;28;20050;-92
2023/08/19 03:56:23;;;;;;;819.75;747.67;;;19.50;85.40;;;;;;5022235;28;20041;-92
2023/08/19 03:59:10;;;;;;;890.75;807.78;;;19.50;85.40;;;;;;4999329;28;20060;-92
2023/08/19 04:01:39;;;;;;;862.55;785.70;;;19.40;85.40;;;;;;5010466;28;20139;-92
2023/08/19 04:04:17;;;;;;;;;;;;;;;;;;;;;
2023/08/19 04:06:53;;;;;;;847.97;773.75;;;19.40;85.40;;;;;;5019397;28;20045;-93
2023/08/19 04:09:22;;;;;;;839.78;766.05;;;19.40;85.50;;;;;;5004654;28;20067;-92
2023/08/19 04:12:16;;;;;;;848.95;773.53;;;19.40;85.50;;;;;;5008669;28;20153;-93
2023/08/19 04:15:02;;;;;;;843.88;768.40;;;19.50;85.50;;;;;;4996202;28;20085;-93
2023/08/19 04:17:31;;;;;;;881.70;799.65;;;19.50;85.50;;;;;;4973168;28;20042;-93
2023/08/19 04:20:17;;;;;;;866.40;787.17;;;19.50;85.50;;;;;;5006340;28;20520;-92
2023/08/19 04:22:46;;;;;;;882.45;800.75;;;19.50;85.40;;;;;;4987442;28;20132;-91
2023/08/19 04:25:55;;;;;;;863.08;786.83;;;19.40;85.40;;;;;;5013158;28;20382;-92
2023/08/19 04:28:40;;;;;;;;;;;19.40;85.40;;;;;;4957600;28;20150;-93
2023/08/19 04:31:29;;;;;;;857.88;777.13;;;19.30;85.20;;;;;;4971291;28;19945;-92
2023/08/19 04:34:18;;;;;;;876.75;794.45;;;19.30;85.30;;;;;;4984538;28;20050;-92
2023/08/19 04:36:57;;;;;;;866.22;788.83;;;19.30;85.40;;;;;;4957354;28;20258;-93
2023/08/19 04:39:44;;;;;;;856.72;779.97;;;19.30;85.30;;;;;;4949971;28;20153;-93
2023/08/19 04:46:23;;;;;;;861.95;786.00;;;19.30;85.30;;;;;;4969462;28;20049;-93
2023/08/19 04:49:49;;;;;;;875.60;796.25;;;19.30;85.30;;;;;;4942455;29;20063;-92
2023/08/19 04:52:48;;;;;;;858.60;781.55;;;19.30;85.20;;;;;;4974582;28;20060;-91
2023/08/19 04:55:34;;;;;;;882.72;801.30;;;19.30;85.20;;;;;;4994393;28;20077;-92
2023/08/19 04:58:26;;;;;;;877.28;797.78;;;19.30;85.20;;;;;;4991725;28;20038;-93
2023/08/19 05:07:45;;;;;;;859.40;782.28;;;19.40;85.10;;;;;;4980325;28;20128;-93
2023/08/19 05:10:19;;;;;;;873.78;795.78;;;19.40;85.20;;;;;;5003123;28;20050;-92
2023/08/19 05:16:44;;;;;;;852.67;777.83;;;19.50;85.20;;;;;;4995037;28;20070;-93
2023/08/19 05:19:39;;;;;;;;;;;;;;;;;;;;;
2023/08/19 05:22:26;;;;;;;;;;;;;;;;;;;;;
2023/08/19 05:25:11;;;;;;;848.95;775.03;;;19.60;85.40;;;;;;4989281;28;20493;-92
2023/08/19 05:27:37;;;;;;;863.25;785.67;;;19.70;85.50;;;;;;4966505;28;20051;-92
2023/08/19 05:30:36;;;;;;;844.97;771.03;;;19.70;85.50;;;;;;4980162;28;20058;-93
2023/08/19 05:33:27;;;;;;;850.30;773.45;;;19.80;85.40;;;;;;5002605;28;20503;-92
2023/08/19 05:38:58;;;;;;;849.30;775.83;;;19.90;85.30;;;;;;5019145;28;20064;-93
2023/08/19 05:41:51;;;;;;;;;;;;;;;;;;;;;
2023/08/19 05:44:33;;;;;;;860.00;782.95;;;20.00;85.20;;;;;;4989103;28;20210;-92
2023/08/19 05:47:15;;;;;;;;;;;;;;;;;;;;;
2023/08/19 05:50:10;;;;;;;;;;;;;;;;;;;;;
2023/08/19 05:56:53;;;;;;;854.63;780.13;;;20.10;85.00;;;;;;4960374;28;20042;-93
2023/08/19 05:59:28;;;;;;;867.30;791.85;;;20.20;85.00;;;;;;4952296;28;20112;-93
2023/08/19 06:01:57;;;;;;;832.03;760.65;;;20.30;84.90;;;;;;5010818;28;20124;-93
2023/08/19 06:04:57;;;;;;;;;;;;;;;;;;;;;
2023/08/19 06:07:57;;;;;;;830.20;758.15;;;20.30;84.80;;;;;;4986463;28;20262;-91
2023/08/19 06:11:43;;;;;;;813.65;744.13;;;20.40;84.80;;;;;;5021798;28;20464;-93
2023/08/19 06:14:49;;;;;;;862.53;784.72;;;20.40;84.70;;;;;;4977978;28;20164;-92
2023/08/19 06:17:15;;;;;;;821.63;751.22;;;20.40;84.70;;;;;;4989317;28;20137;-92
2023/08/19 06:20:18;;;;;;;837.72;763.95;;;20.50;84.60;;;;;;5024167;28;20042;-93
2023/08/19 06:22:51;;;;;;;877.00;797.95;;;20.50;84.50;;;;;;4984579;28;20057;-92
2023/08/19 06:26:26;;;;;;;883.47;803.95;;;20.50;84.50;;;;;;5014799;28;20100;-92
2023/08/19 06:29:17;;;;;;;845.55;772.05;;;20.50;84.40;;;;;;4963815;28;20080;-92
2023/08/19 06:35:59;;;;;;;869.20;793.80;;;20.60;84.30;;;;;;4957560;28;20050;-92
2023/08/19 06:38:52;;;;;;;873.88;796.97;;;20.60;84.30;;;;;;4927640;29;20062;-93
2023/08/19 06:41:22;;;;;;;876.55;798.42;;;20.70;84.30;;;;;;4943470;29;20047;-93
2023/08/19 06:43:51;;;;;;;878.67;800.00;;;20.70;84.20;;;;;;4960240;28;20045;-92
2023/08/19 06:46:54;;;;;;;889.97;812.70;;;20.70;84.10;;;;;;5002990;28;20045;-93
2023/08/19 06:49:44;;;;;;;889.72;811.33;;;20.70;84.00;;;;;;4985384;28;20054;-93
2023/08/19 06:52:31;;;;;;;880.90;800.95;;;20.70;84.00;;;;;;4975420;28;20049;-92
2023/08/19 06:55:51;;;;;;;863.70;789.58;;;20.80;84.00;;;;;;4936032;28;20052;-92
2023/08/19 07:01:37;;;;;;;890.25;812.40;;;20.80;84.00;;;;;;5001456;28;20065;-93
2023/08/19 07:04:07;;;;;;;874.03;798.45;;;20.80;84.10;;;;;;4981323;28;20046;-91
2023/08/19 07:06:34;;;;;;;855.47;781.58;;;20.80;84.00;;;;;;4958747;28;20058;-92
2023/08/19 07:09:05;;;;;;;857.55;785.92;;;20.80;83.90;;;;;;4940996;28;20053;-91
2023/08/19 07:11:46;;;;;;;882.15;805.25;;;20.80;83.90;;;;;;4959146;28;20057;-92
2023/08/19 07:14:12;;;;;;;856.40;784.35;;;20.80;83.90;;;;;;4955795;28;20054;-92
2023/08/19 07:16:54;;;;;;;861.70;788.92;;;20.80;83.90;;;;;;4960733;28;20099;-93
2023/08/19 07:19:34;;;;;;;890.33;812.63;;;20.80;83.90;;;;;;4935510;28;20058;-89
2023/08/19 07:25:50;;;;;;;858.25;783.95;;;20.90;84.00;;;;;;4968490;28;20046;-92
2023/08/19 07:28:37;;;;;;;869.22;793.85;;;21.00;83.90;;;;;;4919863;28;20564;-92
2023/08/19 07:31:06;;;;;;;845.25;774.92;;;21.00;83.80;;;;;;4976042;28;20054;-92
2023/08/19 07:33:32;;;;;;;861.78;786.42;;;21.00;83.70;;;;;;4964349;28;20050;-93
2023/08/19 07:35:58;;;;;;;881.88;804.58;;;21.10;83.70;;;;;;4974888;28;20508;-92
2023/08/19 07:38:24;;;;;;;893.55;817.47;;;21.10;83.70;;;;;;4988306;28;20061;-92
2023/08/19 07:40:52;;;;;;;868.97;792.20;;;21.10;83.70;;;;;;5009955;28;20392;-92
2023/08/19 07:43:18;;;;;;;887.60;808.00;;;21.10;83.70;;;;;;4994465;28;20049;-92
2023/08/19 07:45:47;;;;;;;865.72;792.08;;;21.20;83.70;;;;;;4995478;28;20048;-92
2023/08/19 07:48:16;;;;;;;879.90;802.10;;;21.30;83.70;;;;;;4986130;28;20053;-92
2023/08/19 07:50:42;;;;;;;859.70;784.92;;;21.30;83.70;;;;;;5009462;28;20505;-92
2023/08/19 07:53:12;;;;;;;890.78;813.17;;;21.30;83.70;;;;;;4989746;28;20053;-93
2023/08/19 07:55:38;;;;;;;885.05;806.90;;;21.40;83.70;;;;;;4993662;28;20887;-92
2023/08/19 07:58:10;;;;;;;889.65;810.55;;;21.40;83.60;;;;;;4979030;28;20052;-93
2023/08/19 08:00:35;;;;;;;;;;;21.40;83.50;;;;;;5011650;28;20139;-92
2023/08/19 08:03:01;;;;;;;898.00;819.38;;;21.40;83.40;;;;;;4996028;28;19925;-92
2023/08/19 08:05:30;;;;;;;887.38;809.05;;;21.50;83.40;;;;;;4993905;28;20058;-92
2023/08/19 08:08:02;;;;;;;878.67;802.85;;;21.50;83.50;;;;;;4987935;28;20053;-92
2023/08/19 08:10:40;;;;;;;;;;;;;;;;;;;;;
2023/08/19 08:13:15;;;;;;;889.67;812.15;;;21.50;83.30;;;;;;5008924;28;20068;-93
2023/08/19 08:15:43;;;;;;;879.08;802.25;;;21.60;83.20;;;;;;5009225;28;20485;-94
2023/08/19 08:18:11;;;;;;;866.40;792.63;;;21.60;83.10;;;;;;4976699;28;20045;-93
2023/08/19 08:20:40;;;;;;;886.83;808.63;;;21.70;83.00;;;;;;5010257;28;20045;-93
2023/08/19 08:23:49;;;;;;;885.78;807.95;;;21.70;83.00;;;;;;4983010;28;20052;-93
2023/08/19 08:26:26;;;;;;;;;;;;;;;;;;;;;
2023/08/19 08:36:42;;;;;;;858.90;785.22;;;21.90;82.60;;;;;;4999643;28;20104;-96
2023/08/19 08:39:59;;;;;;;873.42;799.92;;;22.00;82.20;;;;;;5006251;28;20129;-96
2023/08/19 08:55:19;;;;;;;831.95;762.42;;;22.40;81.50;;;;;;4881123;29;20466;-96
2023/08/19 09:09:23;;;;;;;872.72;794.88;;;23.10;80.00;;;;;;4836935;29;20066;-95
2023/08/19 09:12:19;;;;;;;877.70;801.13;;;23.30;79.60;;;;;;4822188;29;20065;-96
2023/08/19 09:15:06;;;;;;;911.25;829.30;;;23.40;79.40;;;;;;4857970;29;20078;-96
2023/08/19 09:17:39;;;;;;;897.60;818.75;;;23.50;79.70;;;;;;4846528;29;20053;-96
2023/08/19 09:20:08;;;;;;;889.92;809.88;;;23.60;79.60;;;;;;4862584;29;20064;-96
2023/08/19 09:22:47;;;;;;;;;;;;;;;;;;;;;
2023/08/19 09:29:08;;;;;;;943.03;853.35;;;23.70;78.40;;;;;;4910490;29;20060;-96
2023/08/19 09:32:00;;;;;;;922.55;836.10;;;23.80;78.20;;;;;;4929279;28;20537;-96
2023/08/19 09:34:26;;;;;;;883.22;808.58;;;23.80;77.30;;;;;;4970539;28;20052;-96
2023/08/19 09:36:56;;;;;;;901.85;820.95;;;23.90;78.10;;;;;;5005796;28;20069;-96
2023/08/19 09:40:17;;;;;;;894.30;814.88;;;23.90;78.30;;;;;;5007660;28;20046;-96
2023/08/19 09:42:59;;;;;;;;;;;24.00;77.00;;;;;;4954656;28;20073;-96
2023/08/19 09:50:58;;;;;;;921.65;834.35;;;24.20;76.80;;;;;;4945077;28;20699;-96
2023/08/19 09:57:28;;;;;;;;;;;;;;;;;;;;;
2023/08/19 10:00:39;;;;;;;;;;;;;;;;;;;;;
2023/08/19 11:26:53;;;;;;;911.53;831.45;;;24.60;78.90;;;;;;5271695;24;20030;-95
2023/08/19 11:29:18;;;;;;;911.38;829.13;;;24.80;79.10;;;;;;4742018;30;20498;-92
2023/08/19 11:31:47;;;;;;;898.25;818.90;;;25.00;78.80;;;;;;4750396;30;20062;-91
2023/08/19 11:34:13;;;;;;;947.13;857.70;;;25.10;78.20;;;;;;4716809;29;20059;-94
2023/08/19 11:36:44;;;;;;;927.13;842.60;;;25.30;77.70;;;;;;4748535;30;20144;-93
2023/08/19 11:39:10;;;;;;;949.90;858.40;;;25.40;76.80;;;;;;4757429;30;20094;-93
2023/08/19 11:41:36;;;;;;;921.78;837.53;;;25.40;76.70;;;;;;4741718;30;20151;-93
2023/08/19 11:44:04;;;;;;;938.70;849.33;;;25.50;76.60;;;;;;4738588;30;20062;-93
2023/08/19 11:46:30;;;;;;;936.80;845.63;;;25.40;76.50;;;;;;4756783;30;20136;-95
2023/08/19 11:49:03;;;;;;;952.22;861.60;;;25.40;76.40;;;;;;4743497;30;20414;-93
2023/08/19 11:51:29;;;;;;;964.28;868.58;;;25.40;76.50;;;;;;4748215;30;20054;-91
2023/08/19 11:54:02;;;;;;;965.28;871.67;;;25.40;76.60;;;;;;4739845;30;20056;-91
2023/08/19 11:56:29;;;;;;;910.80;827.67;;;25.40;76.60;;;;;;4738816;30;20727;-93
2023/08/19 11:58:55;;;;;;;930.22;843.17;;;25.50;76.60;;;;;;4748639;30;20117;-92
2023/08/19 12:01:22;;;;;;;945.28;855.00;;;25.60;76.40;;;;;;4742228;30;20056;-91
2023/08/19 12:03:50;;;;;;;938.95;850.28;;;25.60;76.50;;;;;;4745269;30;20130;-90
2023/08/19 12:06:16;;;;;;;948.60;858.35;;;25.60;76.50;;;;;;4741286;30;20091;-95
2023/08/19 12:08:44;;;;;;;916.20;831.03;;;25.50;76.50;;;;;;4732168;30;20226;-88
2023/08/19 12:11:14;;;;;;;;;;;25.40;76.50;;;;;;4737844;30;20052;-88
2023/08/19 12:13:40;;;;;;;934.92;844.72;;;25.30;76.40;;;;;;4728089;30;19926;-91
2023/08/19 12:16:07;;;;;;;931.08;843.47;;;25.20;76.90;;;;;;4730933;30;20501;-92
2023/08/19 12:18:34;;;;;;;919.67;834.53;;;25.20;76.80;;;;;;4737801;30;20063;-87
2023/08/19 12:21:03;;;;;;;917.63;832.58;;;25.10;77.00;;;;;;4743762;30;20063;-91
2023/08/19 12:23:29;;;;;;;926.08;839.90;;;25.00;76.80;;;;;;4753199;29;20497;-94
2023/08/19 12:25:58;;;;;;;914.92;830.92;;;24.70;77.00;;;;;;4735120;30;20055;-89
2023/08/19 12:28:24;;;;;;;939.15;848.75;;;24.50;77.20;;;;;;4753696;30;20052;-91
2023/08/19 12:30:52;;;;;;;920.47;835.45;;;24.40;77.60;;;;;;4753185;30;20075;-90
2023/08/19 12:33:19;;;;;;;918.60;834.47;;;24.30;77.80;;;;;;4733924;30;20124;-89
2023/08/19 12:35:46;;;;;;;899.63;819.97;;;24.20;78.00;;;;;;4743924;30;20055;-90
2023/08/19 12:38:18;;;;;;;928.78;842.15;;;24.10;78.20;;;;;;4740436;30;20052;-88
2023/08/19 12:40:45;;;;;;;894.45;813.95;;;24.00;78.40;;;;;;4728858;30;20146;-90
2023/08/19 12:43:25;;;;;;;;;;;;;;;;;;;;;
2023/08/19 12:45:55;;;;;;;907.10;824.72;;;24.00;78.60;;;;;;4740451;30;20603;-90
2023/08/19 12:48:24;;;;;;;921.85;836.22;;;24.00;78.70;;;;;;4743875;30;20056;-90
2023/08/19 12:50:50;;;;;;;896.97;818.08;;;24.00;78.70;;;;;;4743413;30;20457;-88
2023/08/19 12:53:16;;;;;;;900.67;819.90;;;24.00;78.80;;;;;;4724900;30;20118;-91
2023/08/19 12:55:42;;;;;;;899.65;816.80;;;24.00;78.60;;;;;;4742335;30;20060;-89
2023/08/19 12:58:11;;;;;;;925.10;839.45;;;24.00;78.10;;;;;;4736952;30;20118;-88
2023/08/19 13:00:37;;;;;;;932.90;844.55;;;24.00;78.00;;;;;;4746354;30;20109;-89
2023/08/19 13:03:03;;;;;;;934.75;842.55;;;24.00;77.00;;;;;;4743354;30;20055;-88
2023/08/19 13:05:28;;;;;;;925.00;835.83;;;23.90;76.60;;;;;;4722697;30;20555;-88
2023/08/19 13:07:54;;;;;;;977.95;870.63;;;23.90;75.20;;;;;;4728591;30;20055;-90
2023/08/19 13:10:22;;;;;;;967.83;866.17;;;23.80;75.00;;;;;;4753627;30;20113;-88
2023/08/19 13:12:51;;;;;;;980.85;874.25;;;23.80;74.90;;;;;;4709061;30;20057;-92
2023/08/19 13:15:18;;;;;;;958.10;860.30;;;23.90;74.60;;;;;;4757235;30;20051;-89
2023/08/19 13:17:45;;;;;;;967.00;863.35;;;23.90;74.30;;;;;;4733464;30;20056;-91
2023/08/19 13:20:17;;;;;;;946.53;848.83;;;23.90;74.20;;;;;;4749375;30;20064;-89
2023/08/19 13:22:43;;;;;;;901.03;811.17;;;23.90;73.50;;;;;;4724057;30;20071;-89
2023/08/19 13:25:30;;;;;;;;;;;;;;;;;;;;;
2023/08/19 13:27:59;;;;;;;962.15;861.10;;;23.70;73.40;;;;;;4745775;30;20055;-89
2023/08/19 13:30:28;;;;;;;925.60;833.13;;;23.60;73.60;;;;;;4754584;30;20052;-90
2023/08/19 13:32:54;;;;;;;922.97;826.22;;;23.60;73.40;;;;;;4766936;29;20121;-91
2023/08/19 13:35:23;;;;;;;920.42;829.85;;;23.50;73.50;;;;;;4753163;30;20062;-91
2023/08/19 13:37:51;;;;;;;946.90;847.03;;;23.50;73.60;;;;;;4748256;30;20062;-94
2023/08/19 13:40:20;;;;;;;896.17;806.20;;;23.40;73.60;;;;;;4727736;30;20075;-91
2023/08/19 13:42:45;;;;;;;868.67;785.13;;;23.40;73.60;;;;;;4744915;30;20525;-88
2023/08/19 13:45:14;;;;;;;924.10;831.53;;;23.30;73.50;;;;;;4750524;30;20048;-92
2023/08/19 13:47:40;;;;;;;874.92;789.35;;;23.40;73.80;;;;;;4724716;30;20072;-90
2023/08/19 13:50:07;;;;;;;937.33;839.10;;;23.40;73.80;;;;;;4727929;30;20049;-89
2023/08/19 13:52:47;;;;;;;907.60;817.95;;;23.40;73.90;;;;;;4727330;30;20498;-91
2023/08/19 13:55:13;;;;;;;911.38;822.00;;;23.30;73.40;;;;;;4737204;30;20048;-90
2023/08/19 13:57:40;;;;;;;905.13;812.30;;;23.30;73.20;;;;;;4734268;30;20056;-93
2023/08/19 14:00:15;;;;;;;899.30;811.00;;;23.20;71.90;;;;;;4724080;30;20062;-90
2023/08/19 14:02:42;;;;;;;932.13;836.97;;;23.10;72.70;;;;;;4738089;30;20040;-91
2023/08/19 14:05:21;;;;;;;938.70;844.08;;;23.00;72.60;;;;;;4730074;30;20087;-90
2023/08/19 14:07:47;;;;;;;827.00;752.63;;;22.90;72.70;;;;;;4722447;30;20490;-88
2023/08/19 14:10:22;;;;;;;887.58;801.20;;;22.80;72.90;;;;;;4737518;30;20062;-89
2023/08/19 14:12:50;;;;;;;913.95;822.92;;;22.70;73.10;;;;;;4736991;30;20055;-89
2023/08/19 14:15:16;;;;;;;947.97;849.03;;;22.70;73.10;;;;;;4743780;30;20048;-91
2023/08/19 14:17:42;;;;;;;932.85;839.08;;;22.60;73.20;;;;;;4728991;30;20061;-94
2023/08/19 14:20:08;;;;;;;942.15;845.15;;;22.60;73.20;;;;;;4713559;30;20757;-91
2023/08/19 14:22:35;;;;;;;951.83;853.83;;;22.50;73.20;;;;;;4733018;30;20245;-92
2023/08/19 14:25:00;;;;;;;912.90;823.38;;;22.50;73.50;;;;;;4745637;30;21185;-90
2023/08/19 14:27:26;;;;;;;912.65;820.47;;;22.50;73.70;;;;;;4725962;30;20048;-95
2023/08/19 14:29:55;;;;;;;853.35;775.55;;;22.40;73.70;;;;;;4733385;30;20067;-90
2023/08/19 14:32:21;;;;;;;944.17;847.50;;;22.40;73.70;;;;;;4728900;29;20063;-92
2023/08/19 14:34:47;;;;;;;837.72;760.25;;;22.30;73.80;;;;;;4746214;30;20052;-92
2023/08/19 14:37:12;;;;;;;902.30;812.70;;;22.30;73.80;;;;;;4743232;30;20062;-90
2023/08/19 14:39:43;;;;;;;920.30;829.47;;;22.20;74.00;;;;;;4744270;30;20052;-93
2023/08/19 14:42:13;;;;;;;904.53;814.67;;;22.20;74.10;;;;;;4736348;30;20106;-90
2023/08/19 14:44:39;;;;;;;941.80;845.25;;;22.10;74.40;;;;;;4739422;30;20064;-92
2023/08/19 14:47:06;;;;;;;913.10;822.45;;;22.10;74.50;;;;;;4719093;30;20035;-95
2023/08/19 14:49:35;;;;;;;860.78;778.67;;;22.10;74.60;;;;;;4739104;30;20506;-91
2023/08/19 14:52:02;;;;;;;927.67;838.58;;;22.10;74.80;;;;;;4739555;30;20135;-91
2023/08/19 14:54:28;;;;;;;936.83;841.40;;;22.10;74.80;;;;;;4739584;30;20064;-92
2023/08/19 14:56:54;;;;;;;900.60;811.90;;;22.00;74.70;;;;;;4737042;30;20043;-92
2023/08/19 14:59:20;;;;;;;878.92;792.90;;;21.90;74.60;;;;;;4727019;30;20051;-89
2023/08/19 15:01:49;;;;;;;911.55;821.95;;;21.90;74.80;;;;;;4745083;30;20048;-88
2023/08/19 15:04:17;;;;;;;893.53;808.92;;;21.70;75.00;;;;;;4729770;30;20058;-90
2023/08/19 15:06:46;;;;;;;904.45;815.15;;;21.70;75.00;;;;;;4735656;30;20659;-93
2023/08/19 15:09:12;;;;;;;894.22;805.63;;;21.70;75.20;;;;;;4730107;30;20111;-88
2023/08/19 15:11:41;;;;;;;888.58;802.03;;;21.60;75.40;;;;;;4722867;30;20561;-90
2023/08/19 15:14:09;;;;;;;889.58;803.00;;;21.50;75.50;;;;;;4742575;30;20055;-89
2023/08/19 15:16:36;;;;;;;894.00;807.75;;;21.50;75.70;;;;;;4729177;30;20050;-94
2023/08/19 15:19:04;;;;;;;904.53;817.67;;;21.40;75.90;;;;;;4732949;30;20124;-88
2023/08/19 15:21:31;;;;;;;893.83;806.90;;;21.40;76.00;;;;;;4739112;30;20051;-92
2023/08/19 15:24:03;;;;;;;877.38;796.72;;;21.40;76.20;;;;;;4729814;30;20128;-93
2023/08/19 15:26:32;;;;;;;905.60;819.05;;;21.40;76.40;;;;;;4739406;30;20057;-91
2023/08/19 15:28:58;;;;;;;912.25;825.50;;;21.30;76.50;;;;;;4742906;30;20537;-88
2023/08/19 15:31:31;;;;;;;900.50;815.22;;;21.30;76.70;;;;;;4742642;30;20135;-91
2023/08/19 15:33:58;;;;;;;859.28;779.67;;;21.30;76.80;;;;;;4718730;30;20048;-89
2023/08/19 15:36:24;;;;;;;891.92;807.47;;;21.30;76.80;;;;;;4741284;30;20663;-93
2023/08/19 15:38:51;;;;;;;921.80;833.15;;;21.30;76.90;;;;;;4712847;30;20122;-89
2023/08/19 15:41:16;;;;;;;886.95;806.53;;;21.40;77.00;;;;;;4746867;30;20048;-89
2023/08/19 15:43:42;;;;;;;873.75;794.78;;;21.40;77.10;;;;;;4732737;30;20075;-87
2023/08/19 15:46:11;;;;;;;858.45;780.40;;;21.40;77.20;;;;;;4749557;30;20113;-96
2023/08/19 15:48:40;;;;;;;898.00;812.28;;;21.40;77.20;;;;;;4728861;30;20075;-91
2023/08/19 15:51:06;;;;;;;884.95;801.15;;;21.40;77.20;;;;;;4724061;30;20060;-89
2023/08/19 15:53:32;;;;;;;866.58;788.60;;;21.40;77.30;;;;;;4720759;30;20514;-90
2023/08/19 15:55:57;;;;;;;906.15;818.20;;;21.40;77.30;;;;;;4749240;30;20048;-87
2023/08/19 15:58:23;;;;;;;905.38;817.92;;;21.40;77.20;;;;;;4744997;30;20062;-91
2023/08/19 16:00:49;;;;;;;875.40;795.38;;;21.40;77.30;;;;;;4752484;30;20055;-88
2023/08/19 16:03:15;;;;;;;909.10;820.03;;;21.40;77.30;;;;;;4737358;30;20074;-89
2023/08/19 16:05:43;;;;;;;912.45;821.25;;;21.40;77.10;;;;;;4724650;30;20043;-87
2023/08/19 16:08:09;;;;;;;901.72;813.28;;;21.40;76.40;;;;;;4723966;30;20501;-90
2023/08/19 16:10:39;;;;;;;861.17;778.53;;;21.30;76.40;;;;;;4728580;30;20105;-91
2023/08/19 16:13:07;;;;;;;888.00;800.92;;;21.30;76.20;;;;;;4744421;30;20081;-88
2023/08/19 16:15:33;;;;;;;899.70;811.58;;;21.30;76.20;;;;;;4742582;30;20518;-88
2023/08/19 16:18:02;;;;;;;902.65;815.03;;;21.30;76.40;;;;;;4742143;30;20185;-91
2023/08/19 16:20:31;;;;;;;879.83;794.00;;;21.40;76.10;;;;;;4741837;30;20540;-89
2023/08/19 16:22:56;;;;;;;919.50;827.85;;;21.50;76.20;;;;;;4725973;30;20044;-89
2023/08/19 16:25:25;;;;;;;883.08;800.03;;;21.50;76.00;;;;;;4726992;30;20056;-90
2023/08/19 16:27:54;;;;;;;871.40;786.45;;;21.70;75.90;;;;;;4727535;30;20052;-88
2023/08/19 16:30:22;;;;;;;866.28;785.00;;;21.90;75.50;;;;;;4746339;30;20068;-87
2023/08/19 16:32:48;;;;;;;898.28;809.30;;;21.90;74.40;;;;;;4732156;30;20055;-89
2023/08/19 16:35:17;;;;;;;918.75;827.13;;;22.00;74.20;;;;;;4724903;30;20040;-91
2023/08/19 16:37:46;;;;;;;857.13;776.55;;;22.20;73.20;;;;;;4758315;30;20101;-87
2023/08/19 16:40:12;;;;;;;868.40;786.40;;;22.30;73.30;;;;;;4724116;30;20529;-87
2023/08/19 16:42:40;;;;;;;832.83;757.40;;;22.40;72.90;;;;;;4731730;30;20159;-87